GB-0053 weather

CLOSED Lower Manor Farm Airstrip
Chickerell, England, United Kingdom

Public forecast

Using degrees Celsius for public forecast. Weather courtesy of forecast.io.

METAR (pilot weather report)

Closest report is RNAS Yeovilton, 23.4 nm (43.3 km) NNW. Retrieved 2019/07/22 23:50 UTC (14 minutes ago):

EGDY 222350Z 17001KT 3000 BR FEW010 16/15 Q1021 BECMG 500 FG SCT010 RMK YLO1 BECMG RED

TAF (pilot weather forecast)

Forecast is more than 12 hours old.

Closest forecast is RNAS Yeovilton, 23.4 nm (43.3 km) NNW. Retrieved 2019/05/01 18:06 UTC (3 months ago):

TAF TAF EGDY 010100Z 3018/0103 CNL